KLM1047 EHAM-EGBB
Flight info
| Callsign | KLM1047 |
|---|---|
| Flight time | 0h 53m |
| Altitude | 34000 |
| Route | IDRID L980 LAM L610 HEMEL |
| Aircraft | A21N/M-SDE2E3FGHIRWXY/LB1 |
Departure
| Time | 2026-05-07 06:53 |
|---|---|
| Airport | Amsterdam Airport Schiphol (EHAM) |
Arrival
| Time | 2026-05-07 07:46 |
|---|---|
| Airport | Birmingham Airport (EGBB) |
| Time | Latitude | Longitude | Altitude | Speed | Heading |
|---|---|---|---|---|---|
| 2026-05-07 06:38 | 52.30899 | 4.77238 | 2 ft | 0 kts | 3° |
| 2026-05-07 06:41 | 52.30877 | 4.77238 | 2 ft | 4 kts | 353° |
| 2026-05-07 06:41 | 52.30854 | 4.77242 | 2 ft | 4 kts | 34° |
| 2026-05-07 06:42 | 52.30843 | 4.77216 | 2 ft | 4 kts | 76° |
| 2026-05-07 06:42 | 52.30840 | 4.77201 | 2 ft | 1 kts | 74° |
| 2026-05-07 06:45 | 52.30841 | 4.77213 | 2 ft | 3 kts | 86° |
| 2026-05-07 06:45 | 52.30841 | 4.77281 | 2 ft | 9 kts | 91° |
| 2026-05-07 06:45 | 52.30836 | 4.77409 | 2 ft | 14 kts | 94° |
| 2026-05-07 06:46 | 52.30843 | 4.77577 | 2 ft | 15 kts | 49° |
| 2026-05-07 06:46 | 52.30952 | 4.77617 | 2 ft | 18 kts | 4° |
| 2026-05-07 06:46 | 52.31086 | 4.77629 | 2 ft | 20 kts | 2° |
| 2026-05-07 06:46 | 52.31237 | 4.77642 | 2 ft | 23 kts | 3° |
| 2026-05-07 06:47 | 52.31405 | 4.77654 | 2 ft | 25 kts | 354° |
| 2026-05-07 06:47 | 52.31548 | 4.77496 | 2 ft | 26 kts | 306° |
| 2026-05-07 06:47 | 52.31572 | 4.77198 | 2 ft | 28 kts | 268° |
| 2026-05-07 06:47 | 52.31563 | 4.76869 | 2 ft | 30 kts | 268° |
| 2026-05-07 06:48 | 52.31549 | 4.76515 | 2 ft | 32 kts | 264° |
| 2026-05-07 06:48 | 52.31536 | 4.76143 | 2 ft | 34 kts | 267° |
| 2026-05-07 06:48 | 52.31523 | 4.75753 | 2 ft | 35 kts | 267° |
| 2026-05-07 06:48 | 52.31509 | 4.75347 | 2 ft | 37 kts | 267° |
| 2026-05-07 06:49 | 52.31500 | 4.75069 | 2 ft | 37 kts | 266° |
| 2026-05-07 06:49 | 52.31485 | 4.74640 | 2 ft | 38 kts | 265° |
| 2026-05-07 06:49 | 52.31471 | 4.74269 | 2 ft | 31 kts | 254° |
| 2026-05-07 06:49 | 52.31293 | 4.74128 | 2 ft | 32 kts | 183° |
| 2026-05-07 06:50 | 52.30987 | 4.74100 | 2 ft | 35 kts | 183° |
| 2026-05-07 06:50 | 52.30818 | 4.74085 | 2 ft | 37 kts | 183° |
| 2026-05-07 06:50 | 52.30557 | 4.74061 | 2 ft | 39 kts | 183° |
| 2026-05-07 06:50 | 52.30293 | 4.73988 | 2 ft | 30 kts | 204° |
| 2026-05-07 06:51 | 52.30220 | 4.73913 | 2 ft | 0 kts | 217° |
| 2026-05-07 06:51 | 52.30200 | 4.73883 | 1 ft | 7 kts | 230° |
| 2026-05-07 06:52 | 52.30197 | 4.73782 | 1 ft | 12 kts | 301° |
| 2026-05-07 06:52 | 52.30284 | 4.73746 | -1 ft | 16 kts | 2° |
| 2026-05-07 06:52 | 52.30522 | 4.73765 | 0 ft | 67 kts | 2° |
| 2026-05-07 06:52 | 52.31244 | 4.73833 | 1 ft | 142 kts | 3° |
| 2026-05-07 06:53 | 52.32411 | 4.73933 | 220 ft | 181 kts | 2° |
| 2026-05-07 06:53 | 52.33709 | 4.74045 | 907 ft | 185 kts | 5° |
| 2026-05-07 06:53 | 52.34934 | 4.74144 | 1996 ft | 175 kts | 1° |
| 2026-05-07 06:53 | 52.36114 | 4.73454 | 2452 ft | 198 kts | 319° |
| 2026-05-07 06:54 | 52.36779 | 4.71316 | 2670 ft | 232 kts | 276° |
| 2026-05-07 06:54 | 52.36396 | 4.68626 | 3112 ft | 258 kts | 237° |
| 2026-05-07 06:54 | 52.35134 | 4.66490 | 3901 ft | 265 kts | 217° |
| 2026-05-07 06:54 | 52.33559 | 4.64865 | 4760 ft | 270 kts | 210° |
| 2026-05-07 06:55 | 52.31988 | 4.63184 | 5624 ft | 271 kts | 224° |
| 2026-05-07 06:55 | 52.30764 | 4.60850 | 6530 ft | 271 kts | 237° |
| 2026-05-07 06:55 | 52.29810 | 4.58198 | 7418 ft | 271 kts | 244° |
| 2026-05-07 06:55 | 52.29017 | 4.55396 | 8278 ft | 273 kts | 248° |
| 2026-05-07 06:56 | 52.28291 | 4.52507 | 9175 ft | 276 kts | 249° |
| 2026-05-07 06:56 | 52.27575 | 4.49589 | 10084 ft | 278 kts | 249° |
| 2026-05-07 06:56 | 52.26827 | 4.46593 | 10599 ft | 295 kts | 249° |
| 2026-05-07 06:56 | 52.25999 | 4.43393 | 10908 ft | 317 kts | 248° |
| 2026-05-07 06:57 | 52.25096 | 4.40026 | 11209 ft | 338 kts | 247° |
| 2026-05-07 06:57 | 52.24111 | 4.36430 | 11629 ft | 354 kts | 246° |
| 2026-05-07 06:57 | 52.23087 | 4.32741 | 12339 ft | 360 kts | 246° |
| 2026-05-07 06:57 | 52.22043 | 4.28996 | 13090 ft | 365 kts | 246° |
| 2026-05-07 06:58 | 52.20982 | 4.25202 | 13847 ft | 370 kts | 246° |
| 2026-05-07 06:58 | 52.19911 | 4.21369 | 14552 ft | 373 kts | 246° |
| 2026-05-07 06:58 | 52.18829 | 4.17496 | 15232 ft | 377 kts | 246° |
| 2026-05-07 06:58 | 52.17737 | 4.13587 | 15885 ft | 382 kts | 246° |
| 2026-05-07 06:59 | 52.16626 | 4.09617 | 16525 ft | 386 kts | 246° |
| 2026-05-07 06:59 | 52.15506 | 4.05619 | 17201 ft | 390 kts | 246° |
| 2026-05-07 06:59 | 52.14374 | 4.01581 | 17833 ft | 394 kts | 246° |
| 2026-05-07 06:59 | 52.13230 | 3.97510 | 18417 ft | 398 kts | 246° |
| 2026-05-07 07:00 | 52.12068 | 3.93385 | 18947 ft | 402 kts | 246° |
| 2026-05-07 07:00 | 52.10903 | 3.89254 | 19560 ft | 402 kts | 246° |
| 2026-05-07 07:00 | 52.09730 | 3.85101 | 20083 ft | 406 kts | 246° |
| 2026-05-07 07:00 | 52.08543 | 3.80905 | 20566 ft | 410 kts | 246° |
| 2026-05-07 07:01 | 52.07345 | 3.76680 | 21140 ft | 412 kts | 246° |
| 2026-05-07 07:01 | 52.06139 | 3.72435 | 21672 ft | 415 kts | 246° |
| 2026-05-07 07:01 | 52.04922 | 3.68160 | 22138 ft | 420 kts | 246° |
| 2026-05-07 07:01 | 52.03690 | 3.63837 | 22651 ft | 422 kts | 246° |
| 2026-05-07 07:02 | 52.02452 | 3.59501 | 23184 ft | 424 kts | 246° |
| 2026-05-07 07:02 | 52.01214 | 3.55175 | 23609 ft | 428 kts | 246° |
| 2026-05-07 07:02 | 51.99930 | 3.50802 | 24003 ft | 431 kts | 242° |
| 2026-05-07 07:02 | 51.98362 | 3.46640 | 24438 ft | 433 kts | 237° |
| 2026-05-07 07:03 | 51.96645 | 3.42608 | 24839 ft | 435 kts | 235° |
| 2026-05-07 07:03 | 51.94845 | 3.38641 | 25196 ft | 438 kts | 234° |
| 2026-05-07 07:03 | 51.93009 | 3.34694 | 25583 ft | 439 kts | 233° |
| 2026-05-07 07:03 | 51.91161 | 3.30737 | 25953 ft | 442 kts | 234° |
| 2026-05-07 07:04 | 51.89305 | 3.26743 | 26292 ft | 444 kts | 234° |
| 2026-05-07 07:04 | 51.87514 | 3.22674 | 26672 ft | 445 kts | 238° |
| 2026-05-07 07:04 | 51.86022 | 3.18261 | 26984 ft | 446 kts | 246° |
| 2026-05-07 07:04 | 51.84972 | 3.13547 | 27392 ft | 445 kts | 256° |
| 2026-05-07 07:05 | 51.84372 | 3.08656 | 27923 ft | 442 kts | 261° |
| 2026-05-07 07:05 | 51.83952 | 3.03730 | 28377 ft | 441 kts | 263° |
| 2026-05-07 07:05 | 51.83618 | 2.98813 | 28785 ft | 440 kts | 264° |
| 2026-05-07 07:05 | 51.83320 | 2.93893 | 29218 ft | 439 kts | 264° |
| 2026-05-07 07:06 | 51.83031 | 2.88990 | 29660 ft | 437 kts | 264° |
| 2026-05-07 07:06 | 51.82734 | 2.84098 | 30020 ft | 437 kts | 264° |
| 2026-05-07 07:06 | 51.82426 | 2.79200 | 30305 ft | 438 kts | 264° |
| 2026-05-07 07:06 | 51.82107 | 2.74309 | 30656 ft | 437 kts | 264° |
| 2026-05-07 07:07 | 51.81785 | 2.69505 | 31005 ft | 435 kts | 264° |
| 2026-05-07 07:07 | 51.81454 | 2.64643 | 31272 ft | 436 kts | 264° |
| 2026-05-07 07:07 | 51.81118 | 2.59768 | 31491 ft | 437 kts | 264° |
| 2026-05-07 07:07 | 51.80778 | 2.54890 | 31816 ft | 436 kts | 264° |
| 2026-05-07 07:08 | 51.80439 | 2.50045 | 32192 ft | 433 kts | 264° |
| 2026-05-07 07:08 | 51.80098 | 2.45191 | 32405 ft | 434 kts | 264° |
| 2026-05-07 07:08 | 51.79754 | 2.40328 | 32545 ft | 437 kts | 264° |
| 2026-05-07 07:08 | 51.79405 | 2.35421 | 32633 ft | 441 kts | 264° |
| 2026-05-07 07:09 | 51.79054 | 2.30505 | 32898 ft | 440 kts | 263° |
| 2026-05-07 07:09 | 51.78700 | 2.25575 | 33148 ft | 440 kts | 263° |
| 2026-05-07 07:09 | 51.78367 | 2.20749 | 33586 ft | 434 kts | 264° |
| 2026-05-07 07:09 | 51.78065 | 2.15923 | 34000 ft | 431 kts | 264° |
| 2026-05-07 07:10 | 51.77503 | 2.06268 | 34059 ft | 432 kts | 265° |
| 2026-05-07 07:10 | 51.76941 | 1.96591 | 34068 ft | 433 kts | 265° |
| 2026-05-07 07:11 | 51.76362 | 1.86913 | 34059 ft | 434 kts | 264° |
| 2026-05-07 07:11 | 51.75767 | 1.77193 | 34071 ft | 435 kts | 264° |
| 2026-05-07 07:12 | 51.75161 | 1.67468 | 34060 ft | 435 kts | 264° |
| 2026-05-07 07:12 | 51.74547 | 1.57729 | 34078 ft | 436 kts | 264° |
| 2026-05-07 07:13 | 51.73925 | 1.48012 | 34063 ft | 436 kts | 264° |
| 2026-05-07 07:13 | 51.73294 | 1.38261 | 34079 ft | 438 kts | 264° |
| 2026-05-07 07:14 | 51.72652 | 1.28482 | 34072 ft | 439 kts | 264° |
| 2026-05-07 07:14 | 51.72001 | 1.18686 | 34075 ft | 439 kts | 264° |
| 2026-05-07 07:15 | 51.71343 | 1.08906 | 34069 ft | 439 kts | 264° |
| 2026-05-07 07:15 | 51.70680 | 0.99183 | 34066 ft | 439 kts | 264° |
| 2026-05-07 07:16 | 51.70003 | 0.89380 | 34067 ft | 441 kts | 264° |
| 2026-05-07 07:16 | 51.69316 | 0.79538 | 34076 ft | 442 kts | 264° |
| 2026-05-07 07:17 | 51.68617 | 0.69663 | 34078 ft | 443 kts | 263° |
| 2026-05-07 07:17 | 51.67911 | 0.59802 | 34078 ft | 443 kts | 264° |
| 2026-05-07 07:18 | 51.67555 | 0.54868 | 33930 ft | 442 kts | 263° |
| 2026-05-07 07:18 | 51.67197 | 0.49953 | 33653 ft | 442 kts | 263° |
| 2026-05-07 07:18 | 51.66843 | 0.45101 | 33362 ft | 442 kts | 263° |
| 2026-05-07 07:18 | 51.66483 | 0.40204 | 32758 ft | 440 kts | 263° |
| 2026-05-07 07:19 | 51.66121 | 0.35310 | 32029 ft | 440 kts | 263° |
| 2026-05-07 07:19 | 51.65756 | 0.30413 | 31318 ft | 441 kts | 263° |
| 2026-05-07 07:19 | 51.65389 | 0.25504 | 30590 ft | 442 kts | 263° |
| 2026-05-07 07:19 | 51.65051 | 0.20575 | 29777 ft | 443 kts | 268° |
| 2026-05-07 07:20 | 51.65193 | 0.15573 | 28978 ft | 441 kts | 279° |
| 2026-05-07 07:20 | 51.65963 | 0.10875 | 28222 ft | 439 kts | 291° |
| 2026-05-07 07:20 | 51.67137 | 0.06278 | 27588 ft | 436 kts | 294° |
| 2026-05-07 07:20 | 51.68345 | 0.01915 | 27086 ft | 428 kts | 294° |
| 2026-05-07 07:21 | 51.69563 | -0.02425 | 26569 ft | 423 kts | 294° |
| 2026-05-07 07:21 | 51.70769 | -0.06719 | 26043 ft | 417 kts | 294° |
| 2026-05-07 07:21 | 51.71956 | -0.10956 | 25520 ft | 413 kts | 294° |
| 2026-05-07 07:21 | 51.73133 | -0.15163 | 24973 ft | 409 kts | 294° |
| 2026-05-07 07:22 | 51.74296 | -0.19333 | 24443 ft | 405 kts | 294° |
| 2026-05-07 07:22 | 51.75448 | -0.23468 | 23911 ft | 402 kts | 294° |
| 2026-05-07 07:22 | 51.76589 | -0.27575 | 23328 ft | 399 kts | 294° |
| 2026-05-07 07:22 | 51.77719 | -0.31649 | 22779 ft | 395 kts | 294° |
| 2026-05-07 07:23 | 51.78832 | -0.35667 | 22282 ft | 392 kts | 294° |
| 2026-05-07 07:23 | 51.80107 | -0.39625 | 21947 ft | 402 kts | 303° |
| 2026-05-07 07:23 | 51.81963 | -0.43022 | 21518 ft | 404 kts | 320° |
| 2026-05-07 07:23 | 51.84271 | -0.45620 | 21167 ft | 403 kts | 327° |
| 2026-05-07 07:24 | 51.86668 | -0.47960 | 20813 ft | 402 kts | 328° |
| 2026-05-07 07:24 | 51.89070 | -0.50260 | 20472 ft | 400 kts | 328° |
| 2026-05-07 07:24 | 51.91456 | -0.52554 | 20121 ft | 398 kts | 328° |
| 2026-05-07 07:24 | 51.93826 | -0.54846 | 19788 ft | 396 kts | 328° |
| 2026-05-07 07:25 | 51.98525 | -0.59420 | 19115 ft | 392 kts | 328° |
| 2026-05-07 07:25 | 52.00854 | -0.61697 | 18776 ft | 390 kts | 328° |
| 2026-05-07 07:25 | 52.03170 | -0.63964 | 18441 ft | 388 kts | 328° |
| 2026-05-07 07:26 | 52.05456 | -0.66205 | 18081 ft | 386 kts | 328° |
| 2026-05-07 07:26 | 52.07748 | -0.68457 | 17734 ft | 384 kts | 328° |
| 2026-05-07 07:26 | 52.10024 | -0.70694 | 17407 ft | 382 kts | 328° |
| 2026-05-07 07:26 | 52.12290 | -0.72926 | 17068 ft | 380 kts | 328° |
| 2026-05-07 07:27 | 52.14545 | -0.75149 | 16751 ft | 378 kts | 328° |
| 2026-05-07 07:27 | 52.16787 | -0.77361 | 16428 ft | 376 kts | 328° |
| 2026-05-07 07:27 | 52.19017 | -0.79564 | 16114 ft | 374 kts | 328° |
| 2026-05-07 07:27 | 52.21233 | -0.81759 | 15785 ft | 372 kts | 327° |
| 2026-05-07 07:28 | 52.23290 | -0.84263 | 15464 ft | 368 kts | 314° |
| 2026-05-07 07:28 | 52.24801 | -0.87576 | 15153 ft | 364 kts | 295° |
| 2026-05-07 07:28 | 52.25637 | -0.91453 | 14843 ft | 361 kts | 284° |
| 2026-05-07 07:28 | 52.26209 | -0.95441 | 14528 ft | 361 kts | 282° |
| 2026-05-07 07:29 | 52.26738 | -0.99435 | 14216 ft | 359 kts | 282° |
| 2026-05-07 07:29 | 52.27265 | -1.03413 | 13901 ft | 358 kts | 282° |
| 2026-05-07 07:29 | 52.27794 | -1.07367 | 13631 ft | 350 kts | 282° |
| 2026-05-07 07:29 | 52.28305 | -1.11162 | 13413 ft | 336 kts | 282° |
| 2026-05-07 07:30 | 52.28800 | -1.14824 | 13121 ft | 324 kts | 282° |
| 2026-05-07 07:30 | 52.29277 | -1.18360 | 12838 ft | 314 kts | 282° |
| 2026-05-07 07:30 | 52.29740 | -1.21792 | 12563 ft | 304 kts | 282° |
| 2026-05-07 07:30 | 52.30188 | -1.25114 | 12296 ft | 295 kts | 282° |
| 2026-05-07 07:31 | 52.30624 | -1.28359 | 12043 ft | 290 kts | 282° |
| 2026-05-07 07:31 | 52.31055 | -1.31566 | 11790 ft | 289 kts | 282° |
| 2026-05-07 07:31 | 52.31340 | -1.33691 | 11622 ft | 290 kts | 282° |
| 2026-05-07 07:31 | 52.31772 | -1.36921 | 11317 ft | 290 kts | 282° |
| 2026-05-07 07:32 | 52.32201 | -1.40131 | 11028 ft | 288 kts | 282° |
| 2026-05-07 07:32 | 52.32627 | -1.43327 | 10789 ft | 288 kts | 282° |
| 2026-05-07 07:32 | 52.33053 | -1.46530 | 10537 ft | 288 kts | 282° |
| 2026-05-07 07:32 | 52.33478 | -1.49732 | 10284 ft | 288 kts | 282° |
| 2026-05-07 07:33 | 52.33901 | -1.52926 | 10050 ft | 287 kts | 282° |
| 2026-05-07 07:33 | 52.34329 | -1.56111 | 9812 ft | 286 kts | 282° |
| 2026-05-07 07:33 | 52.34753 | -1.59278 | 9569 ft | 285 kts | 282° |
| 2026-05-07 07:33 | 52.35171 | -1.62446 | 9331 ft | 284 kts | 282° |
| 2026-05-07 07:34 | 52.35581 | -1.65595 | 9090 ft | 283 kts | 282° |
| 2026-05-07 07:34 | 52.35986 | -1.68732 | 8847 ft | 281 kts | 282° |
| 2026-05-07 07:34 | 52.36383 | -1.71858 | 8616 ft | 280 kts | 282° |
| 2026-05-07 07:34 | 52.36770 | -1.74946 | 8375 ft | 273 kts | 282° |
| 2026-05-07 07:35 | 52.37139 | -1.77932 | 8148 ft | 263 kts | 282° |
| 2026-05-07 07:35 | 52.37492 | -1.80819 | 7918 ft | 254 kts | 282° |
| 2026-05-07 07:35 | 52.37830 | -1.83612 | 7694 ft | 246 kts | 282° |
| 2026-05-07 07:35 | 52.38156 | -1.86339 | 7455 ft | 243 kts | 285° |
| 2026-05-07 07:36 | 52.38890 | -1.88758 | 7207 ft | 238 kts | 314° |
| 2026-05-07 07:36 | 52.40168 | -1.90444 | 6968 ft | 237 kts | 328° |
| 2026-05-07 07:36 | 52.41581 | -1.91860 | 6643 ft | 238 kts | 330° |
| 2026-05-07 07:36 | 52.43011 | -1.93242 | 6259 ft | 238 kts | 330° |
| 2026-05-07 07:37 | 52.44433 | -1.94616 | 5862 ft | 237 kts | 330° |
| 2026-05-07 07:37 | 52.45848 | -1.95990 | 5476 ft | 236 kts | 330° |
| 2026-05-07 07:37 | 52.47256 | -1.97363 | 5084 ft | 235 kts | 330° |
| 2026-05-07 07:37 | 52.48663 | -1.98738 | 4701 ft | 235 kts | 330° |
| 2026-05-07 07:38 | 52.50057 | -2.00085 | 4291 ft | 236 kts | 330° |
| 2026-05-07 07:38 | 52.51491 | -2.01416 | 3885 ft | 237 kts | 330° |
| 2026-05-07 07:38 | 52.52939 | -2.02730 | 3505 ft | 238 kts | 330° |
| 2026-05-07 07:38 | 52.54391 | -2.04042 | 3119 ft | 238 kts | 330° |
| 2026-05-07 07:39 | 52.55844 | -2.05363 | 2732 ft | 238 kts | 330° |
| 2026-05-07 07:39 | 52.57277 | -2.06681 | 2558 ft | 235 kts | 330° |
| 2026-05-07 07:39 | 52.58706 | -2.08003 | 2557 ft | 236 kts | 330° |
| 2026-05-07 07:39 | 52.60169 | -2.09224 | 2550 ft | 236 kts | 344° |
| 2026-05-07 07:40 | 52.61779 | -2.09333 | 2561 ft | 232 kts | 17° |
| 2026-05-07 07:40 | 52.63157 | -2.08052 | 2561 ft | 228 kts | 50° |
| 2026-05-07 07:40 | 52.63884 | -2.05807 | 2558 ft | 223 kts | 83° |
| 2026-05-07 07:40 | 52.63762 | -2.03315 | 2567 ft | 219 kts | 111° |
| 2026-05-07 07:41 | 52.63146 | -2.01012 | 2569 ft | 221 kts | 119° |
| 2026-05-07 07:41 | 52.62423 | -1.98777 | 2565 ft | 221 kts | 120° |
| 2026-05-07 07:41 | 52.61673 | -1.96574 | 2567 ft | 221 kts | 120° |
| 2026-05-07 07:41 | 52.60918 | -1.94371 | 2572 ft | 221 kts | 120° |
| 2026-05-07 07:42 | 52.60151 | -1.92182 | 2565 ft | 220 kts | 124° |
| 2026-05-07 07:42 | 52.59161 | -1.90283 | 2568 ft | 218 kts | 140° |
| 2026-05-07 07:42 | 52.57964 | -1.88836 | 2592 ft | 204 kts | 146° |
| 2026-05-07 07:42 | 52.56848 | -1.87615 | 2586 ft | 183 kts | 146° |
| 2026-05-07 07:43 | 52.55814 | -1.86465 | 2576 ft | 179 kts | 146° |
| 2026-05-07 07:43 | 52.54795 | -1.85316 | 2506 ft | 174 kts | 145° |
| 2026-05-07 07:43 | 52.53843 | -1.84242 | 2234 ft | 158 kts | 146° |
| 2026-05-07 07:43 | 52.52977 | -1.83274 | 2009 ft | 143 kts | 146° |
| 2026-05-07 07:44 | 52.52195 | -1.82401 | 1817 ft | 135 kts | 146° |
| 2026-05-07 07:44 | 52.51423 | -1.81540 | 1630 ft | 134 kts | 146° |
| 2026-05-07 07:44 | 52.50642 | -1.80669 | 1436 ft | 135 kts | 145° |
| 2026-05-07 07:44 | 52.49873 | -1.79810 | 1245 ft | 136 kts | 146° |
| 2026-05-07 07:45 | 52.49094 | -1.78942 | 1043 ft | 135 kts | 145° |
| 2026-05-07 07:45 | 52.48316 | -1.78074 | 851 ft | 135 kts | 145° |
| 2026-05-07 07:45 | 52.47537 | -1.77206 | 670 ft | 135 kts | 145° |
| 2026-05-07 07:45 | 52.46722 | -1.76297 | 470 ft | 148 kts | 146° |
| 2026-05-07 07:46 | 52.45901 | -1.75382 | 325 ft | 132 kts | 146° |
| 2026-05-07 07:46 | 52.45300 | -1.74709 | 329 ft | 80 kts | 144° |
| 2026-05-07 07:46 | 52.44965 | -1.74327 | 327 ft | 30 kts | 125° |
| 2026-05-07 07:46 | 52.44968 | -1.74119 | 330 ft | 1 kts | 76° |
| 2026-05-07 07:47 | 52.44969 | -1.74109 | 331 ft | 2 kts | 76° |
| 2026-05-07 07:47 | 52.44972 | -1.74093 | 330 ft | 1 kts | 76° |
| 2026-05-07 07:47 | 52.44982 | -1.74021 | 329 ft | 13 kts | 76° |
| 2026-05-07 07:47 | 52.45020 | -1.73873 | 334 ft | 14 kts | 56° |
| 2026-05-07 07:48 | 52.45078 | -1.73743 | 332 ft | 13 kts | 40° |
| 2026-05-07 07:48 | 52.45139 | -1.73635 | 332 ft | 13 kts | 57° |
| 2026-05-07 07:48 | 52.45182 | -1.73529 | 330 ft | 7 kts | 56° |
| 2026-05-07 07:48 | 52.45178 | -1.73471 | 331 ft | 5 kts | 144° |
| 2026-05-07 07:49 | 52.45159 | -1.73452 | 331 ft | 1 kts | 146° |
| 2026-05-07 07:49 | 52.45148 | -1.73439 | 330 ft | 0 kts | 146° |